Weather at Jinan Yaoqiang International Airport

Public forecast

Using degrees Celsius for public forecast. Weather courtesy of forecast.io.

Current aviation weather report (METAR) for Jinan Yaoqiang International Airport

Report is more than 6 hours old.

2024/05/25 19:15 (retrieved 19 hours ago)

ZSJN 251915Z 17002MPS 080V200 3500 -SHRA BR FEW006 OVC020 17/17 Q1005 RESHRA NOSIG

Closest aviation forecast (TAF) to Jinan Yaoqiang International Airport

Closest forecast is Shijiazhuang Zhengding International Airport, 147.2 nm (272.6 km) NW.

2024/05/26 12:03 (retrieved 2 hours ago)

TAF ZBSJ 260922Z 2612/2712 35004MPS 5000 BR NSC TX29/2707Z TN15/2622Z